createdAt,value
2016-12-01T14:28:55.101Z,1006.47
2016-12-01T14:30:05.834Z,1006.6
2016-12-01T14:31:16.576Z,1006.45
2016-12-01T14:32:27.309Z,1006.42
2016-12-01T14:33:38.039Z,1006.47
2016-12-01T14:34:48.788Z,1006.38
2016-12-01T14:35:59.531Z,1006.53
2016-12-01T14:37:10.606Z,1006.42
2016-12-01T14:38:21.376Z,1006.44
2016-12-01T14:39:32.123Z,1006.49
2016-12-01T14:40:42.868Z,1006.46
2016-12-01T14:41:53.616Z,1006.46
2016-12-01T14:43:04.357Z,1006.37
2016-12-01T14:44:15.102Z,1006.2
2016-12-01T14:45:25.841Z,1006.34
2016-12-01T14:46:36.551Z,1006.29
2016-12-01T14:47:47.290Z,1006.31
2016-12-01T14:48:58.044Z,1006.21
2016-12-01T14:50:09.091Z,1006.23
2016-12-01T14:51:19.804Z,1006.2
2016-12-01T14:52:30.546Z,1006.22
2016-12-01T14:53:41.274Z,1006.22
2016-12-01T14:54:52.029Z,1006.12
2016-12-01T14:56:02.767Z,1006.16
2016-12-01T14:57:13.508Z,1006.1
2016-12-01T14:58:24.254Z,1006.11
2016-12-01T14:59:34.955Z,1006.05
2016-12-01T15:00:45.703Z,1006.17
2016-12-01T15:01:56.447Z,1006.24
2016-12-01T15:03:07.168Z,1006.12
2016-12-01T15:04:17.909Z,1006.1
2016-12-01T15:05:28.631Z,1006.1
2016-12-01T15:06:39.380Z,1005.97
2016-12-01T15:07:50.115Z,1006.01
2016-12-01T15:09:00.845Z,1006.05
2016-12-01T15:10:11.595Z,1005.92
2016-12-01T15:11:22.339Z,1005.91
2016-12-01T15:12:33.083Z,1005.97
2016-12-01T15:13:43.820Z,1005.95
2016-12-01T15:14:54.579Z,1005.92
2016-12-01T15:16:05.341Z,1005.82
2016-12-01T15:17:16.109Z,1005.81
2016-12-01T15:18:26.836Z,1005.74
2016-12-01T15:19:37.583Z,1005.61
2016-12-01T15:20:48.325Z,1005.63
2016-12-01T15:21:59.075Z,1005.62
2016-12-01T15:23:09.820Z,1005.6
2016-12-01T15:24:20.584Z,1005.58
2016-12-01T15:25:31.310Z,1005.43
2016-12-01T15:26:42.019Z,1005.46
2016-12-01T15:27:52.747Z,1005.56
2016-12-01T15:29:03.457Z,1005.59
2016-12-01T15:30:14.172Z,1005.49
2016-12-01T15:31:24.919Z,1005.42
2016-12-01T15:32:35.944Z,1005.38
2016-12-01T15:33:46.689Z,1005.36
2016-12-01T15:34:57.435Z,1005.38
2016-12-01T15:36:08.182Z,1005.4
2016-12-01T15:37:18.952Z,1005.34
2016-12-01T15:38:29.698Z,1005.31
2016-12-01T15:39:40.469Z,1005.29
2016-12-01T15:40:51.228Z,1005.27
2016-12-01T15:42:01.954Z,1005.31
2016-12-01T15:43:13.352Z,1005.38
2016-12-01T15:44:24.078Z,1005.29
2016-12-01T15:45:35.101Z,1005.24
2016-12-01T15:46:45.820Z,1005.26
2016-12-01T15:47:56.541Z,1005.26
2016-12-01T15:49:07.263Z,1005.2
2016-12-01T15:50:18.033Z,1005.35
2016-12-01T15:51:28.780Z,1005.45
2016-12-01T15:52:39.513Z,1005.4
2016-12-01T15:53:50.247Z,1005.37
2016-12-01T15:55:00.989Z,1005.4
2016-12-01T15:56:11.713Z,1004.98
2016-12-01T15:57:22.455Z,1005.54
2016-12-01T15:58:33.180Z,1005.45
2016-12-01T15:59:43.914Z,1005.47
2016-12-01T16:00:54.644Z,1005.43
2016-12-01T16:02:05.386Z,1005.18
2016-12-01T16:03:16.114Z,1005.33
2016-12-01T16:04:26.886Z,1005.33
2016-12-01T16:05:37.631Z,1005.28
2016-12-01T16:06:48.352Z,1005.25
2016-12-01T16:07:59.087Z,1005.23
2016-12-01T16:09:09.845Z,1005.25
2016-12-01T16:10:20.561Z,1005.25
2016-12-01T16:11:31.282Z,1005.16
2016-12-01T16:12:42.057Z,1005.23
2016-12-01T16:13:52.805Z,1005.18
2016-12-01T16:15:03.520Z,1005.27
2016-12-01T16:16:14.247Z,1005.15
2016-12-01T16:17:24.988Z,1005.2
2016-12-01T16:18:35.716Z,1005.1
2016-12-01T16:19:46.759Z,1005.24
2016-12-01T16:20:57.523Z,1005.21
2016-12-01T16:22:08.268Z,1005.12
2016-12-01T16:23:18.992Z,1005.07
2016-12-01T16:24:29.717Z,1005.09
2016-12-01T16:25:40.477Z,1004.92
2016-12-01T16:26:51.198Z,1005.05
2016-12-01T16:28:01.921Z,1005.04
2016-12-01T16:29:12.644Z,1005.05
2016-12-01T16:30:23.420Z,1005.15
2016-12-01T16:31:34.154Z,1005.03
2016-12-01T16:32:44.886Z,1005.03
2016-12-01T16:33:55.653Z,1005.03
2016-12-01T16:35:06.358Z,1005.04
2016-12-01T16:36:17.099Z,1005.03
2016-12-01T16:37:27.826Z,1005.04
2016-12-01T16:38:38.841Z,1004.97
2016-12-01T16:39:49.567Z,1005.03
2016-12-01T16:41:00.312Z,1004.97
2016-12-01T16:42:11.101Z,1004.93
2016-12-01T16:43:21.825Z,1004.95
2016-12-01T16:44:32.550Z,1004.86
2016-12-01T16:45:43.291Z,1004.78
2016-12-01T16:46:54.018Z,1004.82
2016-12-01T16:48:04.763Z,1004.8
2016-12-01T16:49:15.482Z,1004.77
2016-12-01T16:50:26.233Z,1004.74
2016-12-01T16:51:37.001Z,1004.76
2016-12-01T16:52:47.747Z,1004.78
2016-12-01T16:53:58.493Z,1004.75
2016-12-01T16:55:09.259Z,1004.72
2016-12-01T16:56:19.977Z,1004.65
2016-12-01T16:57:30.676Z,1004.62
2016-12-01T16:58:41.402Z,1004.62
2016-12-01T16:59:52.158Z,1004.6
2016-12-01T17:01:02.907Z,1004.56
2016-12-01T17:02:13.636Z,1004.52
2016-12-01T17:03:24.386Z,1004.49
2016-12-01T17:04:35.133Z,1004.56
2016-12-01T17:05:45.873Z,1004.5
2016-12-01T17:06:56.591Z,1004.4
2016-12-01T17:08:07.344Z,1004.36
2016-12-01T17:09:18.091Z,1004.37
2016-12-01T17:10:28.853Z,1004.46
2016-12-01T17:11:39.583Z,1004.42
2016-12-01T17:12:50.348Z,1004.37
2016-12-01T17:14:01.087Z,1004.24
2016-12-01T17:15:12.116Z,1004.33
2016-12-01T17:16:22.841Z,1004.34
2016-12-01T17:17:33.562Z,1004.31
2016-12-01T17:18:44.295Z,1004.3
2016-12-01T17:19:55.028Z,1004.3
2016-12-01T17:21:05.766Z,1004.22
2016-12-01T17:22:16.499Z,1004.27
2016-12-01T17:23:27.238Z,1004.21
2016-12-01T17:24:38.013Z,1004.26
2016-12-01T17:25:48.771Z,1004.18
2016-12-01T17:26:59.475Z,1004.16
2016-12-01T17:28:10.220Z,1004.18
2016-12-01T17:29:20.915Z,1004.1
2016-12-01T17:30:31.636Z,1004.11
2016-12-01T17:31:42.357Z,1004.01
2016-12-01T17:32:53.078Z,1004.04
2016-12-01T17:34:03.803Z,1003.92
2016-12-01T17:35:14.574Z,1004.08
2016-12-01T17:36:25.289Z,1004.02
2016-12-01T17:37:36.011Z,1004.06
2016-12-01T17:38:46.740Z,1004
2016-12-01T17:39:57.495Z,1004.13
2016-12-01T17:41:08.229Z,1004
2016-12-01T17:42:18.973Z,1004.02
2016-12-01T17:43:29.684Z,1004.01
2016-12-01T17:44:40.412Z,1003.89
2016-12-01T17:45:51.158Z,1003.95
2016-12-01T17:47:01.883Z,1003.91
2016-12-01T17:48:12.648Z,1003.98
2016-12-01T17:49:23.397Z,1003.91
2016-12-01T17:50:34.121Z,1004
2016-12-01T17:51:44.863Z,1003.93
2016-12-01T17:52:55.589Z,1003.86
2016-12-01T17:54:06.334Z,1003.87
2016-12-01T17:55:17.054Z,1003.94
2016-12-01T17:56:27.796Z,1003.88
2016-12-01T17:57:38.517Z,1003.93
2016-12-01T17:58:49.263Z,1003.8
2016-12-01T18:00:00.310Z,1003.83
2016-12-01T18:01:11.052Z,1003.91
2016-12-01T18:02:21.774Z,1003.86
2016-12-01T18:03:32.476Z,1003.91
2016-12-01T18:04:43.224Z,1003.96
2016-12-01T18:05:53.960Z,1003.82
2016-12-01T18:07:04.710Z,1003.84
2016-12-01T18:08:15.455Z,1003.7
2016-12-01T18:09:26.199Z,1003.87
2016-12-01T18:10:36.947Z,1003.91
2016-12-01T18:11:47.669Z,1003.95
2016-12-01T18:12:58.390Z,1003.96
2016-12-01T18:14:09.139Z,1003.94
2016-12-01T18:15:19.881Z,1003.85
2016-12-01T18:16:30.606Z,1003.82
2016-12-01T18:17:41.352Z,1003.73
2016-12-01T18:18:52.120Z,1003.82
2016-12-01T18:20:02.861Z,1003.84
2016-12-01T18:21:13.891Z,1003.77
2016-12-01T18:22:24.623Z,1003.88
2016-12-01T18:23:35.356Z,1003.8
2016-12-01T18:24:46.103Z,1003.78
2016-12-01T18:25:56.841Z,1003.84
2016-12-01T18:27:07.571Z,1003.68
2016-12-01T18:28:18.314Z,1003.75
2016-12-01T18:29:29.033Z,1003.8
2016-12-01T18:30:39.781Z,1003.78
2016-12-01T18:31:50.523Z,1003.84
2016-12-01T18:33:01.317Z,1003.77
2016-12-01T18:34:12.044Z,1003.78
2016-12-01T18:35:22.792Z,1003.83
2016-12-01T18:36:33.536Z,1003.77
2016-12-01T18:37:44.252Z,1003.84
2016-12-01T18:38:54.982Z,1003.76
2016-12-01T18:40:05.748Z,1003.69
2016-12-01T18:41:16.465Z,1003.92
2016-12-01T18:42:27.208Z,1003.79
2016-12-01T18:43:37.956Z,1003.74
2016-12-01T18:44:48.683Z,1003.74
2016-12-01T18:45:59.427Z,1003.81
2016-12-01T18:47:10.211Z,1003.69
2016-12-01T18:48:20.945Z,1003.82
2016-12-01T18:49:31.711Z,1003.72
2016-12-01T18:50:42.432Z,1003.8
2016-12-01T18:51:53.182Z,1003.67
2016-12-01T18:53:03.903Z,1003.7
2016-12-01T18:54:14.645Z,1003.71
2016-12-01T18:55:25.370Z,1003.76
2016-12-01T18:56:36.115Z,1003.69
2016-12-01T18:57:46.863Z,1003.54
2016-12-01T18:58:57.607Z,1003.57
2016-12-01T19:00:08.366Z,1003.56
2016-12-01T19:01:19.094Z,1003.33
2016-12-01T19:02:29.864Z,1003.49
2016-12-01T19:03:40.611Z,1003.59
2016-12-01T19:04:51.356Z,1003.52
2016-12-01T19:06:02.094Z,1003.54
2016-12-01T19:07:12.849Z,1003.46
2016-12-01T19:08:23.570Z,1003.23
2016-12-01T19:09:34.322Z,1003.36
2016-12-01T19:10:45.041Z,1003.44
2016-12-01T19:11:55.798Z,1003.41
2016-12-01T19:13:06.506Z,1003.3
2016-12-01T19:14:17.253Z,1003.4
2016-12-01T19:15:27.996Z,1003.48
2016-12-01T19:16:38.739Z,1003.31
2016-12-01T19:17:49.465Z,1003.21
2016-12-01T19:19:00.186Z,1003.36
2016-12-01T19:20:10.927Z,1003.46
2016-12-01T19:21:21.651Z,1003.33
2016-12-01T19:22:32.369Z,1003.35
2016-12-01T19:23:43.139Z,1003.35
2016-12-01T19:24:53.914Z,1003.28
2016-12-01T19:26:04.947Z,1003.28
2016-12-01T19:27:15.719Z,1003.24
2016-12-01T19:28:26.452Z,1003.37
2016-12-01T19:29:37.169Z,1003.33
2016-12-01T19:30:47.915Z,1003.41
2016-12-01T19:31:58.661Z,1003.31
2016-12-01T19:33:09.411Z,1003.29
2016-12-01T19:34:20.153Z,1003.3
2016-12-01T19:35:30.899Z,1003.43
2016-12-01T19:36:41.624Z,1003.19
2016-12-01T19:37:55.158Z,1003.3
2016-12-01T19:39:05.887Z,1003.27
2016-12-01T19:40:16.612Z,1003.22
2016-12-01T19:41:27.358Z,1003.18
2016-12-01T19:42:38.104Z,1003.12
2016-12-01T19:43:48.821Z,1003.19
2016-12-01T19:44:59.543Z,1003.11
2016-12-01T19:46:10.267Z,1003.03
2016-12-01T19:47:21.011Z,1003.12
2016-12-01T19:48:31.747Z,1003.12
2016-12-01T19:49:42.508Z,1003.09
2016-12-01T19:50:53.248Z,1003.18
2016-12-01T19:52:03.988Z,1003.1
2016-12-01T19:53:14.745Z,1003.06
2016-12-01T19:54:25.518Z,1003.09
2016-12-01T19:55:36.287Z,1003.09
2016-12-01T19:56:47.061Z,1003.04
2016-12-01T19:57:57.797Z,1002.97
2016-12-01T19:59:08.551Z,1002.91
2016-12-01T20:00:19.296Z,1002.9
2016-12-01T20:01:30.085Z,1002.96
2016-12-01T20:02:40.842Z,1003.09
2016-12-01T20:03:51.591Z,1002.93
2016-12-01T20:05:02.360Z,1002.85
2016-12-01T20:06:13.110Z,1002.97
2016-12-01T20:07:23.894Z,1003
2016-12-01T20:08:34.695Z,1003
2016-12-01T20:09:45.412Z,1003.04
2016-12-01T20:10:56.138Z,1002.84
2016-12-01T20:12:06.884Z,1003
2016-12-01T20:13:17.650Z,1002.82
2016-12-01T20:14:28.397Z,1002.89
2016-12-01T20:15:39.149Z,1002.8
2016-12-01T20:16:49.897Z,1002.93
2016-12-01T20:18:00.693Z,1002.77
2016-12-01T20:19:11.434Z,1002.73
2016-12-01T20:20:22.179Z,1003
2016-12-01T20:21:32.948Z,1002.79
2016-12-01T20:22:43.699Z,1002.86
2016-12-01T20:23:54.444Z,1002.89
2016-12-01T20:25:05.218Z,1002.79
2016-12-01T20:26:15.982Z,1002.85
2016-12-01T20:27:26.707Z,1002.83
2016-12-01T20:28:37.450Z,1002.69
2016-12-01T20:29:48.471Z,1002.82
2016-12-01T20:30:59.250Z,1002.62
2016-12-01T20:32:09.989Z,1002.67
2016-12-01T20:33:20.735Z,1002.75
2016-12-01T20:34:31.461Z,1002.72
2016-12-01T20:35:42.207Z,1002.53
2016-12-01T20:36:52.957Z,1002.69
2016-12-01T20:38:03.691Z,1002.72
2016-12-01T20:39:14.449Z,1002.71
2016-12-01T20:40:25.195Z,1002.63
2016-12-01T20:41:35.911Z,1002.65
2016-12-01T20:42:46.647Z,1002.56
2016-12-01T20:43:57.381Z,1002.55
2016-12-01T20:45:08.552Z,1002.59
2016-12-01T20:46:19.289Z,1002.66
2016-12-01T20:47:30.015Z,1002.58
2016-12-01T20:48:40.740Z,1002.52
2016-12-01T20:49:51.463Z,1002.69
2016-12-01T20:51:02.229Z,1002.58
2016-12-01T20:52:13.003Z,1002.44
2016-12-01T20:53:23.845Z,1002.63
2016-12-01T20:54:34.566Z,1002.45
2016-12-01T20:55:45.305Z,1002.4
2016-12-01T20:56:56.037Z,1002.55
2016-12-01T20:58:06.762Z,1002.4
2016-12-01T20:59:17.501Z,1002.48
2016-12-01T21:00:28.551Z,1002.38
2016-12-01T21:01:39.296Z,1002.31
2016-12-01T21:02:50.068Z,1002.36
2016-12-01T21:04:00.835Z,1002.34
2016-12-01T21:05:11.628Z,1002.31
2016-12-01T21:06:22.335Z,1002.25
2016-12-01T21:07:33.067Z,1002.24
2016-12-01T21:08:43.801Z,1002.24
2016-12-01T21:09:54.538Z,1002.28
2016-12-01T21:11:05.310Z,1002.37
2016-12-01T21:12:16.063Z,1002.29
2016-12-01T21:13:26.810Z,1002.13
2016-12-01T21:14:37.555Z,1002.3
2016-12-01T21:15:48.302Z,1002.24
2016-12-01T21:16:59.073Z,1002.22
2016-12-01T21:18:09.814Z,1002.34
2016-12-01T21:19:20.561Z,1002.33
2016-12-01T21:20:31.316Z,1002.29
2016-12-01T21:21:42.031Z,1002.19
2016-12-01T21:22:52.777Z,1002.24
2016-12-01T21:24:03.519Z,1002.06
2016-12-01T21:25:14.244Z,1002.1
2016-12-01T21:26:24.984Z,1002.05
2016-12-01T21:27:35.708Z,1002.08
2016-12-01T21:28:46.458Z,1002
2016-12-01T21:29:57.203Z,1002.04
2016-12-01T21:31:07.920Z,1001.85
2016-12-01T21:32:18.972Z,1001.98
2016-12-01T21:33:29.712Z,1002
2016-12-01T21:34:40.457Z,1002.04
2016-12-01T21:35:51.178Z,1002.01
2016-12-01T21:37:02.202Z,1001.94
2016-12-01T21:38:12.923Z,1001.94
2016-12-01T21:39:23.666Z,1001.89
2016-12-01T21:40:34.391Z,1001.89
2016-12-01T21:41:45.137Z,1001.82
2016-12-01T21:42:55.883Z,1001.84
2016-12-01T21:44:06.627Z,1001.88
2016-12-01T21:45:17.344Z,1001.94
2016-12-01T21:46:28.095Z,1001.96
2016-12-01T21:47:38.813Z,1002.03
2016-12-01T21:48:49.575Z,1002.06
2016-12-01T21:50:00.309Z,1002.01
2016-12-01T21:51:11.052Z,1001.98
2016-12-01T21:52:21.815Z,1001.9
2016-12-01T21:53:32.558Z,1001.91
2016-12-01T21:54:43.289Z,1001.95
2016-12-01T21:55:54.006Z,1001.89
2016-12-01T21:57:04.751Z,1001.89
2016-12-01T21:58:15.475Z,1001.97
2016-12-01T21:59:26.219Z,1001.89
2016-12-01T22:00:36.969Z,1001.99
2016-12-01T22:01:47.715Z,1001.91
2016-12-01T22:02:58.430Z,1001.77
2016-12-01T22:04:09.152Z,1001.86
2016-12-01T22:05:19.897Z,1001.87
2016-12-01T22:06:30.684Z,1001.94
2016-12-01T22:07:41.395Z,1001.9
2016-12-01T22:08:52.138Z,1001.86
2016-12-01T22:10:02.855Z,1002.02
2016-12-01T22:11:13.580Z,1001.96
2016-12-01T22:12:24.321Z,1001.89
2016-12-01T22:13:35.046Z,1001.99
2016-12-01T22:14:45.791Z,1002.02
2016-12-01T22:15:56.514Z,1002.05
2016-12-01T22:17:07.261Z,1001.88
2016-12-01T22:18:17.979Z,1001.92
2016-12-01T22:19:28.726Z,1002.11
2016-12-01T22:20:39.446Z,1001.85
2016-12-01T22:21:50.192Z,1001.8
2016-12-01T22:23:00.929Z,1001.96
2016-12-01T22:24:11.679Z,1002.05
2016-12-01T22:25:22.431Z,1001.99
2016-12-01T22:26:33.217Z,1001.91
2016-12-01T22:27:43.974Z,1001.91
2016-12-01T22:28:54.717Z,1001.86
2016-12-01T22:30:05.413Z,1001.89
2016-12-01T22:31:16.145Z,1002.04
2016-12-01T22:32:26.878Z,1001.63
2016-12-01T22:33:37.629Z,1001.91
2016-12-01T22:34:48.371Z,1001.81
2016-12-01T22:35:59.117Z,1001.83
2016-12-01T22:37:09.835Z,1001.83
2016-12-01T22:38:20.559Z,1001.94
2016-12-01T22:39:31.299Z,1001.8
2016-12-01T22:40:41.996Z,1001.69
2016-12-01T22:41:52.716Z,1001.86
2016-12-01T22:43:03.466Z,1001.88
2016-12-01T22:44:14.210Z,1001.73
2016-12-01T22:45:24.930Z,1001.82
2016-12-01T22:46:35.667Z,1001.78
2016-12-01T22:47:46.397Z,1001.93
2016-12-01T22:48:57.127Z,1001.85
2016-12-01T22:50:07.861Z,1001.92
2016-12-01T22:51:18.615Z,1001.96
2016-12-01T22:52:29.362Z,1001.81
2016-12-01T22:53:40.103Z,1002.03
2016-12-01T22:54:50.855Z,1001.83
2016-12-01T22:56:01.875Z,1001.81
2016-12-01T22:57:12.616Z,1001.81
2016-12-01T22:58:23.337Z,1001.99
2016-12-01T22:59:34.083Z,1001.88
2016-12-01T23:00:44.833Z,1001.95
2016-12-01T23:01:55.567Z,1001.9
2016-12-01T23:03:06.289Z,1001.96
2016-12-01T23:04:17.022Z,1001.94
2016-12-01T23:05:27.768Z,1002.06
2016-12-01T23:06:38.514Z,1001.94
2016-12-01T23:07:49.256Z,1001.84
2016-12-01T23:08:59.977Z,1001.96
2016-12-01T23:10:10.723Z,1001.93
2016-12-01T23:11:21.474Z,1002.21
2016-12-01T23:12:32.215Z,1001.83
2016-12-01T23:13:42.958Z,1002.03
2016-12-01T23:14:53.700Z,1001.77
2016-12-01T23:16:04.429Z,1001.84
2016-12-01T23:17:15.155Z,1001.92
2016-12-01T23:18:25.895Z,1001.91
2016-12-01T23:19:36.621Z,1001.88
2016-12-01T23:20:47.393Z,1001.83
2016-12-01T23:21:58.135Z,1002.07
2016-12-01T23:23:09.160Z,1001.88
2016-12-01T23:24:19.903Z,1001.96
2016-12-01T23:25:30.656Z,1002.06
2016-12-01T23:26:41.395Z,1002
2016-12-01T23:27:52.141Z,1001.92
2016-12-01T23:29:02.888Z,1001.98
2016-12-01T23:30:13.635Z,1001.99
2016-12-01T23:31:24.385Z,1002.09
2016-12-01T23:32:35.123Z,1001.93
2016-12-01T23:33:45.865Z,1001.92
2016-12-01T23:34:56.574Z,1002.06
2016-12-01T23:36:07.337Z,1001.9
2016-12-01T23:37:18.058Z,1001.91
2016-12-01T23:38:28.788Z,1001.84
2016-12-01T23:39:39.508Z,1001.89
2016-12-01T23:40:50.280Z,1001.98
2016-12-01T23:42:01.050Z,1001.93
2016-12-01T23:43:11.792Z,1001.81
2016-12-01T23:44:22.532Z,1002
2016-12-01T23:45:33.264Z,1001.99
2016-12-01T23:46:44.012Z,1001.87
2016-12-01T23:47:54.752Z,1001.91
2016-12-01T23:49:05.498Z,1001.98
2016-12-01T23:50:16.223Z,1002.01
2016-12-01T23:51:26.971Z,1001.98
2016-12-01T23:52:37.709Z,1001.93
2016-12-01T23:53:48.451Z,1002
2016-12-01T23:54:59.180Z,1002.03
2016-12-01T23:56:09.906Z,1002.06
2016-12-01T23:57:20.643Z,1002.05
2016-12-01T23:58:31.397Z,1002.02
2016-12-01T23:59:42.160Z,1002.12
